Time;durP1;ratioP1;P1;durP2;ratioP2;P2;SDS_P1;SDS_P2;PMS_P1;PMS_P2;Temp;Humidity;BMP_temperature;BMP_pressure;BME280_temperature;BME280_humidity;BME280_pressure;Samples;Min_cycle;Max_cycle;Signal;HPM_P1;HPM_P2
2022/06/27 00:00:35;;;;;;;1.85;1.20;;;;;;;;;;5072067;28;20404;-81
2022/06/27 00:03:01;;;;;;;1.55;1.08;;;;;;;;;;5072430;28;20386;-80
2022/06/27 00:05:27;;;;;;;1.77;1.00;;;;;;;;;;5072169;28;20371;-81
2022/06/27 00:07:53;;;;;;;1.70;0.80;;;;;;;;;;5072111;28;20466;-81
2022/06/27 00:10:19;;;;;;;1.03;0.60;;;;;;;;;;5072110;28;20849;-81
2022/06/27 00:12:45;;;;;;;1.15;0.95;;;;;;;;;;5070841;28;20388;-81
2022/06/27 00:15:11;;;;;;;1.30;0.70;;;;;;;;;;5070928;28;20395;-81
2022/06/27 00:17:38;;;;;;;1.25;0.60;;;;;;;;;;5056030;28;20429;-81
2022/06/27 00:20:04;;;;;;;1.30;0.55;;;;;;;;;;5069745;28;20459;-81
2022/06/27 00:22:31;;;;;;;1.67;0.45;;;;;;;;;;5072400;28;20383;-81
2022/06/27 00:24:57;;;;;;;0.57;0.50;;;;;;;;;;5072096;28;20806;-81
2022/06/27 00:27:23;;;;;;;0.80;0.47;;;;;;;;;;5070573;28;20387;-81
2022/06/27 00:29:49;;;;;;;0.70;0.37;;;;;;;;;;5065974;28;20390;-81
2022/06/27 00:32:16;;;;;;;0.70;0.30;;;;;;;;;;5072004;28;20384;-81
2022/06/27 00:34:42;;;;;;;1.48;0.40;;;;;;;;;;5058495;28;20854;-81
2022/06/27 00:37:08;;;;;;;0.50;0.30;;;;;;;;;;5069933;28;20423;-81
2022/06/27 00:39:34;;;;;;;0.60;0.30;;;;;;;;;;5071947;28;20375;-81
2022/06/27 00:42:00;;;;;;;0.30;0.30;;;;;;;;;;5071913;28;20372;-81
2022/06/27 00:44:33;;;;;;;1.20;0.30;;;;;;;;;;5071813;28;20378;-80
2022/06/27 00:46:59;;;;;;;1.27;0.38;;;;;;;;;;5064018;28;20388;-81
2022/06/27 00:49:25;;;;;;;0.60;0.40;;;;;;;;;;5063019;28;20440;-81
2022/06/27 00:51:52;;;;;;;0.65;0.40;;;;;;;;;;5076122;28;20402;-81
2022/06/27 00:54:18;;;;;;;1.50;0.30;;;;;;;;;;5075924;28;20463;-81
2022/06/27 00:56:44;;;;;;;1.00;0.40;;;;;;;;;;5058657;28;20407;-81
2022/06/27 00:59:10;;;;;;;0.57;0.40;;;;;;;;;;5058315;28;20431;-81
2022/06/27 01:01:36;;;;;;;0.50;0.22;;;;;;;;;;5064915;28;20470;-81
2022/06/27 01:04:02;;;;;;;1.30;0.60;;;;;;;;;;5075467;28;20892;-81
2022/06/27 01:06:28;;;;;;;1.95;0.38;;;;;;;;;;5075497;28;20491;-81
2022/06/27 01:08:54;;;;;;;0.50;0.32;;;;;;;;;;5075391;28;20379;-81
2022/06/27 01:11:21;;;;;;;1.10;0.40;;;;;;;;;;5075305;28;20372;-81
2022/06/27 01:13:47;;;;;;;1.60;0.40;;;;;;;;;;5067338;28;20379;-81
2022/06/27 01:16:13;;;;;;;1.10;0.60;;;;;;;;;;5070701;28;20396;-81
2022/06/27 01:18:40;;;;;;;0.55;0.43;;;;;;;;;;5047800;28;20376;-80
2022/06/27 01:21:07;;;;;;;0.60;0.35;;;;;;;;;;5075226;28;20375;-81
2022/06/27 01:23:36;;;;;;;0.88;0.40;;;;;;;;;;5075151;28;20419;-81
2022/06/27 01:26:02;;;;;;;0.50;0.40;;;;;;;;;;5075091;28;20872;-81
2022/06/27 01:28:28;;;;;;;0.98;0.30;;;;;;;;;;5067180;28;20865;-81
2022/06/27 01:30:54;;;;;;;0.60;0.40;;;;;;;;;;5075004;28;20376;-81
2022/06/27 01:33:20;;;;;;;1.00;0.38;;;;;;;;;;5074943;28;20375;-81
2022/06/27 01:35:46;;;;;;;2.30;0.60;;;;;;;;;;5074943;28;20422;-81
2022/06/27 01:38:12;;;;;;;0.77;0.40;;;;;;;;;;5074847;28;20415;-81
2022/06/27 01:40:39;;;;;;;0.63;0.40;;;;;;;;;;5074742;28;20376;-81
2022/06/27 01:43:06;;;;;;;0.65;0.40;;;;;;;;;;5074711;28;20372;-81
2022/06/27 01:45:33;;;;;;;1.02;0.40;;;;;;;;;;5075080;28;20383;-81
2022/06/27 01:47:59;;;;;;;0.75;0.30;;;;;;;;;;5055730;28;20464;-81
2022/06/27 01:50:25;;;;;;;1.77;0.60;;;;;;;;;;5069977;28;20479;-81
2022/06/27 01:52:52;;;;;;;1.40;0.60;;;;;;;;;;5057654;28;20408;-81
2022/06/27 01:55:24;;;;;;;0.70;0.40;;;;;;;;;;5057870;28;20448;-81
2022/06/27 01:57:51;;;;;;;1.85;0.60;;;;;;;;;;5044737;28;21083;-81
2022/06/27 02:00:17;;;;;;;1.77;0.70;;;;;;;;;;5072733;28;20492;-81
2022/06/27 02:02:43;;;;;;;1.40;0.70;;;;;;;;;;5074204;28;20480;-81
2022/06/27 02:05:10;;;;;;;1.00;0.40;;;;;;;;;;5074506;28;20401;-81
2022/06/27 02:07:39;;;;;;;0.60;0.60;;;;;;;;;;5056037;28;20376;-81
2022/06/27 02:10:05;;;;;;;1.73;0.60;;;;;;;;;;5073960;28;20408;-81
2022/06/27 02:12:31;;;;;;;2.08;0.80;;;;;;;;;;5074421;28;20384;-81
2022/06/27 02:14:57;;;;;;;2.22;0.70;;;;;;;;;;5074079;28;20391;-81
2022/06/27 02:17:24;;;;;;;2.42;0.63;;;;;;;;;;5059911;28;20793;-81
2022/06/27 02:19:50;;;;;;;0.70;0.70;;;;;;;;;;5069741;28;20383;-81
2022/06/27 02:22:16;;;;;;;2.05;0.80;;;;;;;;;;5074087;28;20745;-81
2022/06/27 02:24:43;;;;;;;1.42;0.75;;;;;;;;;;5074043;28;20371;-81
2022/06/27 02:27:10;;;;;;;1.80;0.90;;;;;;;;;;5070921;28;20376;-81
2022/06/27 02:29:36;;;;;;;1.23;0.90;;;;;;;;;;5066158;28;20375;-81
2022/06/27 02:32:03;;;;;;;1.00;0.85;;;;;;;;;;5073836;28;20384;-81
2022/06/27 02:34:29;;;;;;;1.08;0.93;;;;;;;;;;5073876;28;20384;-81
2022/06/27 02:36:56;;;;;;;2.03;0.80;;;;;;;;;;5070705;28;20401;-81
2022/06/27 02:39:24;;;;;;;1.60;0.70;;;;;;;;;;5060952;28;20380;-81
2022/06/27 02:41:54;;;;;;;1.70;0.80;;;;;;;;;;5073770;28;20376;-81
2022/06/27 02:44:20;;;;;;;2.90;1.27;;;;;;;;;;5073473;28;20876;-81
2022/06/27 02:46:46;;;;;;;2.50;0.90;;;;;;;;;;5064593;28;20385;-81
2022/06/27 02:49:13;;;;;;;2.50;0.88;;;;;;;;;;5059034;28;20865;-81
2022/06/27 02:51:42;;;;;;;1.67;0.70;;;;;;;;;;5073412;28;20383;-80
2022/06/27 02:54:09;;;;;;;0.60;0.60;;;;;;;;;;5073402;28;20383;-81
2022/06/27 02:56:41;;;;;;;2.10;0.70;;;;;;;;;;5064605;28;20495;-81
2022/06/27 02:59:12;;;;;;;3.28;0.60;;;;;;;;;;5073223;28;20367;-81
2022/06/27 03:01:38;;;;;;;2.30;0.70;;;;;;;;;;5073149;28;20392;-81
2022/06/27 03:04:05;;;;;;;0.80;0.60;;;;;;;;;;5073304;28;20430;-81
2022/06/27 03:06:31;;;;;;;2.25;0.77;;;;;;;;;;5073255;28;20379;-81
2022/06/27 03:08:57;;;;;;;1.13;0.70;;;;;;;;;;5072260;28;20926;-81
2022/06/27 03:11:24;;;;;;;1.63;0.60;;;;;;;;;;5072881;28;20873;-81
2022/06/27 03:13:51;;;;;;;2.30;0.60;;;;;;;;;;5073266;28;20857;-81
2022/06/27 03:16:19;;;;;;;1.30;0.60;;;;;;;;;;5067803;28;20807;-81
2022/06/27 03:18:45;;;;;;;1.30;0.70;;;;;;;;;;5059700;28;20706;-81
2022/06/27 03:21:11;;;;;;;0.88;0.70;;;;;;;;;;5071145;28;20437;-81
2022/06/27 03:23:38;;;;;;;1.65;0.68;;;;;;;;;;5052699;28;20735;-81
2022/06/27 03:26:04;;;;;;;1.20;0.63;;;;;;;;;;5063945;28;20440;-81
2022/06/27 03:28:30;;;;;;;1.30;0.70;;;;;;;;;;5072645;28;20409;-81
2022/06/27 03:30:56;;;;;;;1.02;0.80;;;;;;;;;;5062018;28;20376;-80
2022/06/27 03:33:23;;;;;;;1.23;0.57;;;;;;;;;;5072778;28;20469;-81
2022/06/27 03:35:49;;;;;;;1.13;0.70;;;;;;;;;;5072907;28;20380;-81
2022/06/27 03:38:15;;;;;;;2.00;0.60;;;;;;;;;;5072854;28;20415;-81
2022/06/27 03:40:41;;;;;;;0.90;0.65;;;;;;;;;;5072467;28;20380;-81
2022/06/27 03:43:08;;;;;;;1.15;0.60;;;;;;;;;;5072462;28;20875;-81
2022/06/27 03:45:34;;;;;;;3.00;0.80;;;;;;;;;;5072754;28;20380;-81
2022/06/27 03:48:00;;;;;;;2.58;0.82;;;;;;;;;;5053408;28;20390;-80
2022/06/27 03:50:27;;;;;;;0.98;0.70;;;;;;;;;;5068082;28;20384;-81
2022/06/27 03:52:54;;;;;;;2.10;0.77;;;;;;;;;;5072417;28;20380;-81
2022/06/27 03:55:20;;;;;;;2.25;0.70;;;;;;;;;;5063887;28;20377;-80
2022/06/27 03:57:49;;;;;;;2.00;0.70;;;;;;;;;;5058323;28;20939;-80
2022/06/27 04:00:16;;;;;;;3.28;0.65;;;;;;;;;;5067243;28;21811;-81
2022/06/27 04:02:42;;;;;;;0.98;0.63;;;;;;;;;;5052253;28;20409;-81
2022/06/27 04:05:09;;;;;;;1.98;0.70;;;;;;;;;;5062087;28;20466;-81
2022/06/27 04:07:35;;;;;;;0.73;0.60;;;;;;;;;;5043598;28;20383;-82
2022/06/27 04:10:01;;;;;;;1.02;0.50;;;;;;;;;;5071687;28;20380;-82
2022/06/27 04:12:27;;;;;;;1.50;0.60;;;;;;;;;;5060236;28;20853;-82
2022/06/27 04:14:53;;;;;;;0.80;0.55;;;;;;;;;;5054707;28;20495;-82
2022/06/27 04:17:19;;;;;;;0.97;0.50;;;;;;;;;;5058591;28;20475;-82
2022/06/27 04:19:45;;;;;;;2.03;0.70;;;;;;;;;;5067010;28;20450;-83
2022/06/27 04:22:11;;;;;;;1.00;0.70;;;;;;;;;;5070454;28;20418;-82
2022/06/27 04:24:37;;;;;;;1.90;0.70;;;;;;;;;;5072120;28;20415;-82
2022/06/27 04:27:04;;;;;;;0.95;0.60;;;;;;;;;;5068857;28;20377;-83
2022/06/27 04:29:30;;;;;;;0.68;0.60;;;;;;;;;;5063093;28;20877;-82
2022/06/27 04:31:56;;;;;;;1.67;0.63;;;;;;;;;;5072301;28;20384;-82
2022/06/27 04:34:23;;;;;;;1.60;0.50;;;;;;;;;;5064041;28;20400;-83
2022/06/27 04:36:49;;;;;;;3.15;0.50;;;;;;;;;;5067571;28;20412;-82
2022/06/27 04:39:17;;;;;;;2.50;0.52;;;;;;;;;;5071983;28;20932;-82
2022/06/27 04:41:46;;;;;;;2.38;0.60;;;;;;;;;;5072053;28;20386;-83
2022/06/27 04:44:12;;;;;;;1.10;0.60;;;;;;;;;;5071769;28;20383;-82
2022/06/27 04:46:40;;;;;;;1.20;0.60;;;;;;;;;;5060004;28;20393;-82
2022/06/27 04:49:06;;;;;;;1.63;0.70;;;;;;;;;;5070370;28;20715;-82
2022/06/27 04:51:32;;;;;;;2.10;0.50;;;;;;;;;;5071803;28;20380;-82
2022/06/27 04:53:58;;;;;;;2.38;0.60;;;;;;;;;;5071815;28;20734;-83
2022/06/27 04:56:25;;;;;;;0.80;0.50;;;;;;;;;;5050318;28;20389;-82
2022/06/27 04:58:51;;;;;;;1.20;0.50;;;;;;;;;;5048808;28;20387;-82
2022/06/27 05:01:17;;;;;;;0.60;0.50;;;;;;;;;;5054084;28;20399;-83
2022/06/27 05:03:43;;;;;;;1.15;0.50;;;;;;;;;;5051622;28;20414;-83
2022/06/27 05:06:09;;;;;;;1.97;0.60;;;;;;;;;;5070828;28;20383;-83
2022/06/27 05:08:37;;;;;;;1.45;0.68;;;;;;;;;;5048096;28;20386;-83
2022/06/27 05:11:03;;;;;;;2.13;0.70;;;;;;;;;;5065441;28;20419;-83
2022/06/27 05:13:31;;;;;;;1.90;0.77;;;;;;;;;;5066761;28;20390;-82
2022/06/27 05:15:57;;;;;;;1.00;0.68;;;;;;;;;;5052194;28;20381;-83
2022/06/27 05:18:23;;;;;;;0.75;0.60;;;;;;;;;;5069290;28;20403;-83
2022/06/27 05:20:50;;;;;;;1.75;0.60;;;;;;;;;;5071659;28;20857;-82
2022/06/27 05:23:16;;;;;;;2.70;0.50;;;;;;;;;;5061313;28;20730;-82
2022/06/27 05:25:42;;;;;;;1.05;0.40;;;;;;;;;;5071511;28;20384;-83
2022/06/27 05:28:08;;;;;;;1.85;0.50;;;;;;;;;;5058256;28;20417;-82
2022/06/27 05:30:34;;;;;;;0.80;0.60;;;;;;;;;;5053496;28;20896;-83
2022/06/27 05:33:00;;;;;;;0.80;0.50;;;;;;;;;;5064858;28;20387;-83
2022/06/27 05:35:26;;;;;;;1.45;0.52;;;;;;;;;;5073623;28;20749;-84
2022/06/27 05:37:54;;;;;;;1.38;0.50;;;;;;;;;;5070918;28;20408;-84
2022/06/27 05:40:20;;;;;;;1.02;0.40;;;;;;;;;;5071306;28;20394;-85
2022/06/27 05:42:47;;;;;;;0.70;0.47;;;;;;;;;;5074198;28;20380;-84
2022/06/27 05:45:13;;;;;;;0.80;0.45;;;;;;;;;;5057211;28;20389;-84
2022/06/27 05:47:40;;;;;;;1.38;0.60;;;;;;;;;;5059628;28;20861;-86
2022/06/27 05:50:07;;;;;;;0.50;0.30;;;;;;;;;;5074842;28;20849;-83
2022/06/27 05:52:34;;;;;;;0.98;0.40;;;;;;;;;;5068590;28;20383;-83
2022/06/27 05:55:00;;;;;;;0.67;0.40;;;;;;;;;;5067584;28;20413;-83
2022/06/27 05:57:27;;;;;;;0.75;0.50;;;;;;;;;;5071955;28;20414;-83
2022/06/27 05:59:55;;;;;;;0.80;0.32;;;;;;;;;;5066937;28;20402;-83
2022/06/27 06:02:21;;;;;;;0.95;0.60;;;;;;;;;;5056036;28;20723;-82
2022/06/27 06:04:47;;;;;;;1.23;0.43;;;;;;;;;;5056603;28;20373;-83
2022/06/27 06:07:14;;;;;;;0.90;0.40;;;;;;;;;;5058647;28;20381;-83
2022/06/27 06:09:41;;;;;;;2.97;0.45;;;;;;;;;;5061610;28;20413;-82
2022/06/27 06:12:09;;;;;;;2.70;0.50;;;;;;;;;;5059619;28;20384;-82
2022/06/27 06:14:35;;;;;;;5.32;1.20;;;;;;;;;;5061047;28;20385;-83
2022/06/27 06:17:03;;;;;;;3.17;0.52;;;;;;;;;;5062220;28;20457;-82
2022/06/27 06:19:29;;;;;;;2.10;0.47;;;;;;;;;;5061336;28;20409;-82
2022/06/27 06:21:55;;;;;;;1.45;0.50;;;;;;;;;;5054602;28;20492;-82
2022/06/27 06:24:21;;;;;;;2.25;0.50;;;;;;;;;;5063322;28;20881;-82
2022/06/27 06:26:52;;;;;;;2.33;0.52;;;;;;;;;;5071060;28;20465;-83
2022/06/27 06:29:18;;;;;;;1.98;0.52;;;;;;;;;;5062332;28;20378;-83
2022/06/27 06:31:45;;;;;;;0.60;0.50;;;;;;;;;;5069665;28;20375;-82
2022/06/27 06:34:12;;;;;;;1.23;0.50;;;;;;;;;;5061308;28;20824;-83
2022/06/27 06:36:39;;;;;;;0.63;0.40;;;;;;;;;;5064469;28;20409;-86
2022/06/27 06:39:06;;;;;;;1.40;0.40;;;;;;;;;;5047335;28;20377;-85
2022/06/27 06:41:32;;;;;;;1.85;0.60;;;;;;;;;;5052253;28;20393;-86
2022/06/27 06:43:59;;;;;;;0.57;0.45;;;;;;;;;;5071596;28;20384;-86
2022/06/27 06:46:26;;;;;;;1.37;0.30;;;;;;;;;;5072547;28;20466;-86
2022/06/27 06:49:02;;;;;;;0.50;0.32;;;;;;;;;;5073361;28;20375;-86
2022/06/27 06:51:28;;;;;;;0.63;0.43;;;;;;;;;;5072942;28;20883;-86
2022/06/27 06:53:54;;;;;;;1.63;0.38;;;;;;;;;;5073475;28;20395;-86
2022/06/27 06:56:21;;;;;;;1.13;0.50;;;;;;;;;;5064702;28;20380;-86
2022/06/27 06:58:47;;;;;;;0.60;0.50;;;;;;;;;;5072253;28;20380;-86
2022/06/27 07:01:13;;;;;;;0.67;0.40;;;;;;;;;;5066653;28;20446;-86
2022/06/27 07:03:39;;;;;;;1.30;0.57;;;;;;;;;;5073289;28;20380;-86
2022/06/27 07:06:05;;;;;;;1.67;1.00;;;;;;;;;;5073199;28;20375;-86
2022/06/27 07:08:33;;;;;;;1.48;1.25;;;;;;;;;;5073160;28;20386;-86
2022/06/27 07:10:59;;;;;;;5.27;3.50;;;;;;;;;;5073078;28;20379;-86
2022/06/27 07:13:25;;;;;;;6.47;3.85;;;;;;;;;;5073059;28;20379;-87
2022/06/27 07:15:52;;;;;;;5.15;4.20;;;;;;;;;;5065872;28;20381;-87
2022/06/27 07:18:18;;;;;;;3.53;3.00;;;;;;;;;;5069844;28;20961;-86
2022/06/27 07:20:45;;;;;;;4.10;1.95;;;;;;;;;;5072909;28;20380;-86
2022/06/27 07:23:12;;;;;;;2.67;2.47;;;;;;;;;;5072906;28;20949;-86
2022/06/27 07:25:38;;;;;;;1.80;1.30;;;;;;;;;;5073065;28;20382;-86
2022/06/27 07:28:04;;;;;;;4.32;1.40;;;;;;;;;;5072851;28;20371;-86
2022/06/27 07:30:30;;;;;;;1.57;0.60;;;;;;;;;;5071037;28;20380;-86
2022/06/27 07:32:56;;;;;;;1.75;0.60;;;;;;;;;;5071740;28;20394;-86
2022/06/27 07:35:22;;;;;;;1.50;0.60;;;;;;;;;;5072674;28;20388;-87
2022/06/27 07:37:49;;;;;;;1.70;0.45;;;;;;;;;;5063171;28;20400;-87
2022/06/27 07:40:22;;;;;;;1.33;0.70;;;;;;;;;;5072721;28;20492;-86
2022/06/27 07:42:49;;;;;;;1.65;0.77;;;;;;;;;;5071339;28;20471;-87
2022/06/27 07:45:15;;;;;;;1.00;0.70;;;;;;;;;;5072416;28;20864;-87
2022/06/27 07:47:42;;;;;;;1.15;0.47;;;;;;;;;;5072462;28;20952;-87
2022/06/27 07:50:09;;;;;;;1.02;0.40;;;;;;;;;;5071117;28;20861;-87
2022/06/27 07:53:20;;;;;;;1.70;0.50;;;;;;;;;;5072452;28;20387;-86
2022/06/27 07:55:24;;;;;;;0.93;0.60;;;;;;;;;;5055761;28;20444;-86
2022/06/27 07:57:52;;;;;;;0.60;0.50;;;;;;;;;;5065933;28;20997;-86
2022/06/27 08:00:18;;;;;;;1.55;0.60;;;;;;;;;;5051796;28;20424;-87
2022/06/27 08:02:44;;;;;;;0.47;0.45;;;;;;;;;;5071165;28;20820;-87
2022/06/27 08:05:10;;;;;;;0.70;0.50;;;;;;;;;;5072331;28;20380;-87
2022/06/27 08:07:37;;;;;;;0.70;0.30;;;;;;;;;;5072267;28;20461;-86
2022/06/27 08:10:03;;;;;;;0.82;0.60;;;;;;;;;;5072153;28;20388;-87
2022/06/27 08:12:30;;;;;;;1.05;0.40;;;;;;;;;;5064261;28;20386;-87
2022/06/27 08:14:56;;;;;;;0.60;0.43;;;;;;;;;;5072041;28;20736;-86
2022/06/27 08:17:23;;;;;;;0.32;0.32;;;;;;;;;;5061586;28;20413;-87
2022/06/27 08:19:50;;;;;;;1.90;0.60;;;;;;;;;;5053279;28;20889;-86
2022/06/27 08:22:16;;;;;;;1.45;0.70;;;;;;;;;;5061884;28;20857;-86
2022/06/27 08:24:42;;;;;;;1.90;0.67;;;;;;;;;;5064759;28;20929;-87
2022/06/27 08:27:08;;;;;;;0.60;0.35;;;;;;;;;;5071875;28;20423;-87
2022/06/27 08:29:34;;;;;;;0.93;0.20;;;;;;;;;;5071893;28;20418;-87
2022/06/27 08:32:00;;;;;;;0.57;0.30;;;;;;;;;;5072080;28;20710;-88
2022/06/27 08:34:27;;;;;;;0.70;0.20;;;;;;;;;;5072107;28;20375;-87
2022/06/27 08:36:53;;;;;;;0.45;0.15;;;;;;;;;;5071916;28;20410;-87
2022/06/27 08:39:19;;;;;;;1.90;0.40;;;;;;;;;;5071940;28;20379;-87
2022/06/27 08:41:46;;;;;;;0.70;0.28;;;;;;;;;;5070662;28;20899;-87
2022/06/27 08:44:12;;;;;;;0.63;0.30;;;;;;;;;;5070565;28;20741;-87
2022/06/27 08:46:40;;;;;;;1.08;0.20;;;;;;;;;;5072216;28;20380;-87
2022/06/27 08:49:07;;;;;;;0.82;0.40;;;;;;;;;;5071891;28;20806;-87
2022/06/27 08:51:33;;;;;;;0.65;0.30;;;;;;;;;;5071914;28;20379;-86
2022/06/27 08:54:00;;;;;;;0.60;0.30;;;;;;;;;;5071851;28;20757;-87
2022/06/27 08:56:28;;;;;;;0.77;0.45;;;;;;;;;;5063040;28;20368;-87
2022/06/27 08:58:55;;;;;;;0.35;0.30;;;;;;;;;;5071613;28;20372;-87
2022/06/27 09:01:23;;;;;;;0.83;0.40;;;;;;;;;;5071633;28;20396;-88
2022/06/27 09:03:58;;;;;;;0.55;0.30;;;;;;;;;;5071869;28;20433;-87
2022/06/27 09:06:24;;;;;;;0.20;0.20;;;;;;;;;;5072119;28;20372;-87
2022/06/27 09:09:03;;;;;;;0.95;0.32;;;;;;;;;;5075483;28;20853;-88
2022/06/27 09:11:30;;;;;;;1.20;0.40;;;;;;;;;;5064126;28;20385;-87
2022/06/27 09:13:57;;;;;;;0.82;0.30;;;;;;;;;;5075315;28;20383;-87
2022/06/27 09:16:23;;;;;;;1.70;0.40;;;;;;;;;;5075312;28;20391;-87
2022/06/27 09:18:50;;;;;;;1.48;0.40;;;;;;;;;;5075378;28;20375;-88
2022/06/27 09:21:17;;;;;;;1.45;0.47;;;;;;;;;;5075562;28;20855;-87
2022/06/27 09:23:49;;;;;;;0.63;0.30;;;;;;;;;;5073872;28;20399;-88
2022/06/27 09:26:15;;;;;;;1.08;0.22;;;;;;;;;;5075225;28;20372;-87
2022/06/27 09:28:41;;;;;;;1.20;0.43;;;;;;;;;;5075153;28;20383;-87
2022/06/27 09:31:12;;;;;;;2.10;0.30;;;;;;;;;;5074956;28;20853;-87
2022/06/27 09:33:41;;;;;;;1.60;0.40;;;;;;;;;;5058257;28;20889;-87
2022/06/27 09:36:16;;;;;;;2.15;0.40;;;;;;;;;;5055067;28;20905;-87
2022/06/27 09:38:43;;;;;;;0.65;0.40;;;;;;;;;;5072303;28;20414;-86
2022/06/27 09:41:11;;;;;;;0.47;0.30;;;;;;;;;;5074948;28;20387;-87
2022/06/27 09:43:40;;;;;;;1.70;0.30;;;;;;;;;;5074805;28;20378;-86
2022/06/27 09:46:06;;;;;;;1.65;0.40;;;;;;;;;;5074800;28;20383;-87
2022/06/27 09:48:33;;;;;;;1.10;0.40;;;;;;;;;;5074893;28;20886;-88
2022/06/27 09:51:01;;;;;;;0.73;0.50;;;;;;;;;;5074959;28;20417;-87
2022/06/27 09:53:27;;;;;;;1.33;0.60;;;;;;;;;;5074672;28;20429;-87
2022/06/27 09:55:54;;;;;;;2.90;0.70;;;;;;;;;;5065880;28;20383;-86
2022/06/27 09:58:20;;;;;;;2.75;0.60;;;;;;;;;;5074591;28;20406;-86
2022/06/27 10:00:48;;;;;;;3.05;0.60;;;;;;;;;;5074401;28;20408;-87
2022/06/27 10:03:15;;;;;;;1.20;0.50;;;;;;;;;;5073267;28;20868;-87
2022/06/27 10:05:41;;;;;;;1.13;0.60;;;;;;;;;;5074546;28;20376;-86
2022/06/27 10:08:08;;;;;;;0.50;0.50;;;;;;;;;;5074605;28;20380;-86
2022/06/27 10:10:53;;;;;;;1.30;0.70;;;;;;;;;;5063154;28;20384;-87
2022/06/27 10:13:19;;;;;;;2.30;0.80;;;;;;;;;;5072317;28;20437;-87
2022/06/27 10:15:48;;;;;;;1.83;0.90;;;;;;;;;;5068563;28;20373;-87
2022/06/27 10:18:14;;;;;;;2.35;0.90;;;;;;;;;;5064238;28;20797;-86
2022/06/27 10:20:47;;;;;;;3.92;0.80;;;;;;;;;;5075624;28;20918;-87
2022/06/27 10:23:18;;;;;;;1.33;0.75;;;;;;;;;;5078893;28;20387;-85
2022/06/27 10:25:45;;;;;;;1.27;0.50;;;;;;;;;;5074578;28;20464;-86
2022/06/27 10:28:14;;;;;;;0.63;0.63;;;;;;;;;;5074043;28;20379;-86
2022/06/27 10:30:47;;;;;;;1.30;0.63;;;;;;;;;;5073946;28;20380;-85
2022/06/27 10:33:19;;;;;;;1.63;0.68;;;;;;;;;;5073994;28;20753;-86
2022/06/27 10:38:52;;;;;;;0.90;0.60;;;;;;;;;;5064739;28;20411;-86
2022/06/27 10:41:18;;;;;;;0.77;0.50;;;;;;;;;;5072520;28;20899;-86
2022/06/27 10:43:48;;;;;;;1.10;0.60;;;;;;;;;;5071419;28;20383;-87
2022/06/27 10:46:17;;;;;;;2.60;0.65;;;;;;;;;;5053640;28;20386;-86
2022/06/27 10:48:46;;;;;;;1.55;0.70;;;;;;;;;;5069097;28;20861;-86
2022/06/27 10:51:18;;;;;;;0.82;0.60;;;;;;;;;;5073621;28;20746;-86
2022/06/27 10:53:47;;;;;;;1.35;0.60;;;;;;;;;;5073662;28;20379;-86
2022/06/27 10:56:29;;;;;;;1.10;0.50;;;;;;;;;;5064689;28;20388;-87
2022/06/27 10:58:55;;;;;;;1.80;0.53;;;;;;;;;;5073377;28;20446;-86
2022/06/27 11:01:21;;;;;;;1.55;0.65;;;;;;;;;;5072209;28;20420;-87
2022/06/27 11:03:48;;;;;;;2.00;0.70;;;;;;;;;;5072193;28;20380;-86
2022/06/27 11:06:14;;;;;;;1.63;0.80;;;;;;;;;;5073281;28;20513;-86
2022/06/27 11:08:41;;;;;;;1.30;0.70;;;;;;;;;;5073301;28;20379;-86
2022/06/27 11:11:07;;;;;;;0.95;0.80;;;;;;;;;;5073221;28;20426;-86
2022/06/27 11:13:44;;;;;;;1.70;0.80;;;;;;;;;;5073052;28;20391;-87
2022/06/27 11:16:13;;;;;;;1.17;0.70;;;;;;;;;;5072912;28;20384;-87
2022/06/27 11:18:41;;;;;;;1.08;0.70;;;;;;;;;;5073274;28;20738;-86
2022/06/27 11:21:07;;;;;;;2.30;0.75;;;;;;;;;;5065726;28;20376;-86
2022/06/27 11:23:47;;;;;;;0.90;0.70;;;;;;;;;;5073167;28;20927;-87
2022/06/27 11:26:13;;;;;;;3.00;0.75;;;;;;;;;;5073335;28;20368;-87
2022/06/27 11:34:09;;;;;;;1.48;0.70;;;;;;;;;;5060627;28;20367;-87
2022/06/27 11:36:36;;;;;;;0.90;0.70;;;;;;;;;;5072700;28;20376;-86
2022/06/27 11:39:02;;;;;;;1.77;0.77;;;;;;;;;;5072675;28;20907;-87
2022/06/27 11:41:32;;;;;;;1.00;0.60;;;;;;;;;;5073022;28;20390;-86
2022/06/27 11:44:02;;;;;;;0.93;0.60;;;;;;;;;;5072502;28;20861;-86
2022/06/27 11:46:28;;;;;;;0.73;0.50;;;;;;;;;;5072602;28;20887;-87
2022/06/27 11:48:55;;;;;;;1.52;0.70;;;;;;;;;;5072622;28;20833;-87
2022/06/27 11:51:22;;;;;;;3.95;0.80;;;;;;;;;;5072946;28;20384;-86
2022/06/27 11:54:17;;;;;;;1.67;0.63;;;;;;;;;;5072599;28;20404;-87
2022/06/27 11:56:44;;;;;;;1.80;0.60;;;;;;;;;;5046455;28;20905;-86
2022/06/27 11:59:11;;;;;;;0.82;0.68;;;;;;;;;;5072138;28;20379;-86
2022/06/27 12:01:38;;;;;;;2.20;0.70;;;;;;;;;;5063120;28;20389;-87
2022/06/27 12:04:15;;;;;;;1.40;0.70;;;;;;;;;;5053964;28;20401;-86
2022/06/27 12:06:44;;;;;;;0.80;0.60;;;;;;;;;;5072470;28;20376;-86
2022/06/27 12:09:10;;;;;;;1.98;0.80;;;;;;;;;;5057352;28;20427;-87
2022/06/27 12:11:36;;;;;;;0.77;0.70;;;;;;;;;;5052197;28;20382;-87
2022/06/27 12:14:03;;;;;;;1.05;0.70;;;;;;;;;;5060923;28;20462;-86
2022/06/27 12:16:29;;;;;;;1.05;0.60;;;;;;;;;;5071894;28;20384;-87
2022/06/27 12:18:55;;;;;;;1.80;0.70;;;;;;;;;;5072390;28;20703;-87
2022/06/27 12:21:24;;;;;;;1.10;0.50;;;;;;;;;;5072013;28;20418;-86
2022/06/27 12:23:51;;;;;;;2.10;0.70;;;;;;;;;;5072297;28;20382;-87
2022/06/27 12:26:17;;;;;;;2.10;0.80;;;;;;;;;;5072130;28;20367;-86
2022/06/27 12:28:43;;;;;;;2.10;0.70;;;;;;;;;;5072021;28;20492;-86
2022/06/27 12:31:10;;;;;;;1.17;0.67;;;;;;;;;;5070579;28;20832;-86
2022/06/27 12:33:36;;;;;;;2.50;0.65;;;;;;;;;;5055025;28;20400;-86
2022/06/27 12:36:02;;;;;;;2.92;0.60;;;;;;;;;;5060984;28;20848;-87
2022/06/27 12:38:28;;;;;;;2.55;0.60;;;;;;;;;;5071956;28;20406;-87
2022/06/27 12:41:11;;;;;;;2.10;0.70;;;;;;;;;;5071994;28;20372;-85
2022/06/27 12:43:37;;;;;;;1.67;0.80;;;;;;;;;;5076019;28;20376;-86
2022/06/27 12:46:03;;;;;;;1.63;0.70;;;;;;;;;;5068364;28;20377;-86
2022/06/27 12:48:29;;;;;;;3.70;0.70;;;;;;;;;;5056042;28;20446;-85
2022/06/27 12:50:56;;;;;;;1.52;0.70;;;;;;;;;;5075432;28;20388;-85
2022/06/27 12:53:22;;;;;;;2.05;0.77;;;;;;;;;;5074632;28;20394;-87
2022/06/27 12:55:48;;;;;;;1.75;0.80;;;;;;;;;;5066049;28;20462;-86
2022/06/27 12:58:14;;;;;;;2.97;0.80;;;;;;;;;;5075752;28;20487;-86
2022/06/27 13:00:40;;;;;;;0.80;0.65;;;;;;;;;;5075492;28;20483;-87
2022/06/27 13:03:06;;;;;;;0.85;0.70;;;;;;;;;;5074459;28;20458;-86
2022/06/27 13:05:32;;;;;;;1.08;0.50;;;;;;;;;;5075612;28;20394;-86
2022/06/27 13:07:58;;;;;;;2.78;0.70;;;;;;;;;;5072269;28;20392;-87
2022/06/27 13:10:24;;;;;;;1.95;0.70;;;;;;;;;;5055643;28;20408;-86
2022/06/27 13:12:50;;;;;;;1.02;0.75;;;;;;;;;;5068221;28;20419;-86
2022/06/27 13:15:18;;;;;;;2.13;0.70;;;;;;;;;;5075298;28;20388;-86
2022/06/27 13:17:44;;;;;;;1.77;0.70;;;;;;;;;;5075368;28;20408;-86
2022/06/27 13:20:12;;;;;;;1.38;0.77;;;;;;;;;;5074000;28;20384;-86
2022/06/27 13:22:38;;;;;;;1.75;0.80;;;;;;;;;;5062759;28;20377;-86
2022/06/27 13:25:04;;;;;;;2.15;0.90;;;;;;;;;;5071973;28;20384;-86
2022/06/27 13:27:30;;;;;;;1.00;0.70;;;;;;;;;;5075278;28;20376;-86
2022/06/27 13:29:56;;;;;;;0.93;0.65;;;;;;;;;;5075259;28;20383;-86
2022/06/27 13:32:22;;;;;;;0.93;0.60;;;;;;;;;;5071444;28;20525;-86
2022/06/27 13:34:48;;;;;;;0.95;0.60;;;;;;;;;;5053018;28;20381;-86
2022/06/27 13:37:14;;;;;;;1.38;0.50;;;;;;;;;;5073839;28;20399;-86
2022/06/27 13:39:40;;;;;;;1.30;0.70;;;;;;;;;;5075044;28;20451;-87
2022/06/27 13:42:06;;;;;;;0.73;0.50;;;;;;;;;;5074881;28;20865;-86
2022/06/27 13:44:33;;;;;;;1.25;0.63;;;;;;;;;;5074852;28;20388;-86
2022/06/27 13:46:59;;;;;;;1.27;0.73;;;;;;;;;;5074916;28;20466;-86
2022/06/27 13:49:25;;;;;;;2.63;0.73;;;;;;;;;;5074788;28;20501;-87
2022/06/27 13:51:51;;;;;;;1.73;0.85;;;;;;;;;;5074806;28;20380;-86
2022/06/27 13:54:17;;;;;;;2.28;0.75;;;;;;;;;;5073951;28;20444;-86
2022/06/27 13:56:43;;;;;;;2.45;0.60;;;;;;;;;;5054612;28;20464;-86
2022/06/27 13:59:13;;;;;;;1.42;0.80;;;;;;;;;;5058088;28;20383;-86
2022/06/27 14:01:40;;;;;;;1.67;0.63;;;;;;;;;;5073059;28;20402;-86
2022/06/27 14:04:06;;;;;;;1.77;0.63;;;;;;;;;;5067398;28;20370;-86
2022/06/27 14:09:17;;;;;;;1.15;0.70;;;;;;;;;;5074382;28;20517;-86
2022/06/27 14:11:43;;;;;;;1.30;0.60;;;;;;;;;;5074353;28;20740;-86
2022/06/27 14:14:09;;;;;;;1.70;0.57;;;;;;;;;;5074333;28;20386;-86
2022/06/27 14:16:35;;;;;;;0.68;0.50;;;;;;;;;;5071873;28;20376;-86
2022/06/27 14:19:01;;;;;;;1.25;0.60;;;;;;;;;;5063069;28;20382;-86
2022/06/27 14:21:28;;;;;;;1.00;0.80;;;;;;;;;;5074147;28;20378;-87
2022/06/27 14:23:54;;;;;;;0.95;0.50;;;;;;;;;;5074192;28;20459;-87
2022/06/27 14:26:20;;;;;;;1.35;0.55;;;;;;;;;;5074173;28;20387;-87
2022/06/27 14:28:47;;;;;;;1.43;0.60;;;;;;;;;;5073352;28;20383;-86
2022/06/27 14:31:13;;;;;;;0.75;0.52;;;;;;;;;;5073812;28;20883;-87
2022/06/27 14:33:39;;;;;;;1.35;0.70;;;;;;;;;;5073234;28;20415;-86
2022/06/27 14:36:06;;;;;;;1.35;0.63;;;;;;;;;;5073922;28;20383;-86
2022/06/27 14:38:33;;;;;;;1.17;0.40;;;;;;;;;;5056792;28;20440;-87
2022/06/27 14:40:59;;;;;;;1.23;0.55;;;;;;;;;;5060131;28;20873;-87
2022/06/27 14:43:25;;;;;;;0.50;0.50;;;;;;;;;;5073711;28;20435;-86
2022/06/27 14:45:51;;;;;;;0.80;0.50;;;;;;;;;;5073533;28;20410;-87
2022/06/27 14:48:17;;;;;;;0.60;0.50;;;;;;;;;;5074017;28;20725;-86
2022/06/27 14:50:43;;;;;;;1.00;0.50;;;;;;;;;;5073453;28;20948;-87
2022/06/27 14:53:09;;;;;;;0.70;0.60;;;;;;;;;;5073873;28;20378;-87